createdAt,value
2019-01-11T00:01:03.389Z,101582.02
2019-01-11T00:03:33.013Z,101580.83
2019-01-11T00:06:02.704Z,101576.48
2019-01-11T00:08:32.309Z,101571.73
2019-01-11T00:11:01.944Z,101573.12
2019-01-11T00:13:31.555Z,101575.30
2019-01-11T00:16:01.174Z,101574.80
2019-01-11T00:18:30.757Z,101577.66
2019-01-11T00:21:00.305Z,101572.52
2019-01-11T00:23:29.923Z,101570.34
2019-01-11T00:25:59.545Z,101554.03
2019-01-11T00:28:29.459Z,101561.34
2019-01-11T00:30:59.046Z,101563.42
2019-01-11T00:33:28.602Z,101559.06
2019-01-11T00:35:58.156Z,101558.11
2019-01-11T00:38:27.854Z,101557.52
2019-01-11T00:40:57.423Z,101551.38
2019-01-11T00:43:26.960Z,101553.66
2019-01-11T00:45:56.577Z,101552.08
2019-01-11T00:48:26.154Z,101557.22
2019-01-11T00:50:55.728Z,101556.43
2019-01-11T00:53:25.367Z,101553.03
2019-01-11T00:55:55.041Z,101549.67
2019-01-11T00:58:24.580Z,101547.89
2019-01-11T01:00:54.207Z,101542.69
2019-01-11T01:03:23.829Z,101541.30
2019-01-11T01:05:53.509Z,101540.80
2019-01-11T01:08:23.179Z,101543.77
2019-01-11T01:10:52.873Z,101534.38
2019-01-11T01:13:22.409Z,101535.95
2019-01-11T01:15:52.434Z,101529.53
2019-01-11T01:18:22.031Z,101522.70
2019-01-11T01:20:51.666Z,101529.92
2019-01-11T01:23:21.245Z,101523.80
2019-01-11T01:25:50.944Z,101523.20
2019-01-11T01:28:20.470Z,101522.70
2019-01-11T01:30:50.173Z,101525.27
2019-01-11T01:33:19.800Z,101527.95
2019-01-11T01:35:49.598Z,101525.77
2019-01-11T01:38:19.393Z,101525.77
2019-01-11T01:40:48.979Z,101518.05
2019-01-11T01:43:18.497Z,101524.09
2019-01-11T01:45:48.061Z,101517.27
2019-01-11T01:48:17.591Z,101522.02
2019-01-11T01:50:47.267Z,101514.98
2019-01-11T01:53:16.826Z,101513.11
2019-01-11T01:55:46.384Z,101520.33
2019-01-11T01:58:15.962Z,101510.77
2019-01-11T02:00:45.575Z,101515.81
2019-01-11T02:03:15.126Z,101508.00
2019-01-11T02:05:44.665Z,101500.28
2019-01-11T02:08:14.290Z,101505.23
2019-01-11T02:10:43.864Z,101496.33
2019-01-11T02:13:13.490Z,101501.05
2019-01-11T02:15:43.095Z,101496.73
2019-01-11T02:18:12.936Z,101492.48
2019-01-11T02:20:42.476Z,101488.20
2019-01-11T02:23:12.061Z,101486.71
2019-01-11T02:25:46.193Z,101487.31
2019-01-11T02:28:13.177Z,101479.69
2019-01-11T02:30:42.713Z,101483.35
2019-01-11T02:33:12.274Z,101468.72
2019-01-11T02:35:41.842Z,101470.50
2019-01-11T02:38:11.410Z,101473.95
2019-01-11T02:40:40.956Z,101469.70
2019-01-11T02:43:10.649Z,101468.91
2019-01-11T02:45:40.285Z,101462.48
2019-01-11T02:48:09.942Z,101465.35
2019-01-11T02:50:39.603Z,101458.83
2019-01-11T02:53:09.188Z,101461.50
2019-01-11T02:55:38.731Z,101449.03
2019-01-11T02:58:08.430Z,101450.42
2019-01-11T03:00:38.091Z,101443.90
2019-01-11T03:03:07.895Z,101437.08
2019-01-11T03:05:37.840Z,101441.52
2019-01-11T03:08:07.492Z,101431.44
2019-01-11T03:10:37.197Z,101429.86
2019-01-11T03:13:06.839Z,101425.20
2019-01-11T03:15:36.398Z,101418.28
2019-01-11T03:18:06.107Z,101409.28
2019-01-11T03:20:35.673Z,101407.11
2019-01-11T03:23:05.284Z,101399.59
2019-01-11T03:25:34.980Z,101401.03
2019-01-11T03:28:04.568Z,101401.62
2019-01-11T03:30:34.122Z,101392.53
2019-01-11T03:33:03.750Z,101380.16
2019-01-11T03:35:33.321Z,101378.58
2019-01-11T03:38:03.097Z,101371.84
2019-01-11T03:40:32.814Z,101378.18
2019-01-11T03:43:02.519Z,101374.33
2019-01-11T03:45:32.150Z,101365.63
2019-01-11T03:48:01.732Z,101355.34
2019-01-11T03:50:31.283Z,101352.37
2019-01-11T03:53:00.892Z,101352.28
2019-01-11T03:55:30.488Z,101355.24
2019-01-11T03:58:00.032Z,101350.89
2019-01-11T04:00:29.628Z,101350.50
2019-01-11T04:02:59.184Z,101348.23
2019-01-11T04:05:28.803Z,101349.02
2019-01-11T04:07:58.409Z,101342.59
2019-01-11T04:10:27.973Z,101340.02
2019-01-11T04:12:57.515Z,101338.28
2019-01-11T04:15:27.360Z,101329.58
2019-01-11T04:18:01.488Z,101332.55
2019-01-11T04:20:31.035Z,101330.38
2019-01-11T04:23:00.571Z,101324.44
2019-01-11T04:25:30.805Z,101320.89
2019-01-11T04:28:00.361Z,101323.85
2019-01-11T04:30:29.983Z,101319.11
2019-01-11T04:32:59.790Z,101307.84
2019-01-11T04:35:29.411Z,101292.81
2019-01-11T04:37:58.955Z,101296.67
2019-01-11T04:40:34.141Z,101296.38
2019-01-11T04:42:59.813Z,101291.53
2019-01-11T04:45:29.391Z,101283.14
2019-01-11T04:47:58.967Z,101283.05
2019-01-11T04:50:28.840Z,101281.36
2019-01-11T04:52:58.445Z,101275.73
2019-01-11T04:55:28.071Z,101275.34
2019-01-11T04:57:57.595Z,101274.94
2019-01-11T05:00:27.218Z,101268.91
2019-01-11T05:02:57.103Z,101261.98
2019-01-11T05:05:26.713Z,101261.53
2019-01-11T05:07:56.343Z,101254.62
2019-01-11T05:10:26.088Z,101258.19
2019-01-11T05:12:56.471Z,101246.93
2019-01-11T05:15:26.030Z,101242.28
2019-01-11T05:17:55.999Z,101240.99
2019-01-11T05:20:25.562Z,101252.86
2019-01-11T05:22:55.201Z,101241.11
2019-01-11T05:25:24.880Z,101234.19
2019-01-11T05:27:54.458Z,101226.33
2019-01-11T05:30:24.314Z,101227.61
2019-01-11T05:32:53.899Z,101219.32
2019-01-11T05:35:23.622Z,101225.55
2019-01-11T05:37:53.187Z,101223.29
2019-01-11T05:40:22.800Z,101217.45
2019-01-11T05:42:52.393Z,101213.11
2019-01-11T05:45:22.122Z,101217.75
2019-01-11T05:47:51.913Z,101213.80
2019-01-11T05:50:24.423Z,101203.83
2019-01-11T05:52:52.851Z,101191.38
2019-01-11T05:55:24.315Z,101196.03
2019-01-11T05:58:11.763Z,101188.66
2019-01-11T06:00:41.415Z,101186.00
2019-01-11T06:03:10.987Z,101183.33
2019-01-11T06:05:40.543Z,101187.19
2019-01-11T06:08:11.788Z,101176.91
2019-01-11T06:10:41.548Z,101173.45
2019-01-11T06:13:11.162Z,101160.21
2019-01-11T06:15:40.735Z,101169.69
2019-01-11T06:18:10.305Z,101167.62
2019-01-11T06:20:40.039Z,101164.74
2019-01-11T06:23:09.648Z,101163.86
2019-01-11T06:25:39.267Z,101154.47
2019-01-11T06:28:08.816Z,101153.73
2019-01-11T06:30:38.429Z,101146.81
2019-01-11T06:33:07.997Z,101146.02
2019-01-11T06:35:37.540Z,101145.72
2019-01-11T06:38:07.161Z,101142.75
2019-01-11T06:40:36.777Z,101139.78
2019-01-11T06:43:06.395Z,101135.13
2019-01-11T06:45:37.710Z,101133.36
2019-01-11T06:48:09.122Z,101129.41
2019-01-11T06:50:38.770Z,101129.63
2019-01-11T06:53:08.522Z,101128.09
2019-01-11T06:55:38.307Z,101123.85
2019-01-11T06:58:09.312Z,101123.85
2019-01-11T07:00:39.112Z,101117.83
2019-01-11T07:03:08.687Z,101114.95
2019-01-11T07:05:38.368Z,101118.01
2019-01-11T07:08:08.289Z,101121.47
2019-01-11T07:10:37.902Z,101119.69
2019-01-11T07:13:07.450Z,101111.98
2019-01-11T07:15:37.054Z,101114.46
2019-01-11T07:18:06.676Z,101106.75
2019-01-11T07:20:36.228Z,101111.89
2019-01-11T07:23:05.966Z,101114.37
2019-01-11T07:25:35.511Z,101119.41
2019-01-11T07:28:05.072Z,101116.84
2019-01-11T07:30:36.324Z,101119.81
2019-01-11T07:33:07.586Z,101118.62
2019-01-11T07:35:47.605Z,101116.54
2019-01-11T07:38:17.239Z,101120.88
2019-01-11T07:40:46.910Z,101115.25
2019-01-11T07:43:16.537Z,101111.49
2019-01-11T07:45:46.138Z,101099.53
2019-01-11T07:48:15.771Z,101105.66
2019-01-11T07:50:49.306Z,101101.86
2019-01-11T07:53:16.677Z,101105.01
2019-01-11T07:55:46.293Z,101107.77
2019-01-11T07:58:15.975Z,101107.45
2019-01-11T08:00:45.657Z,101105.86
2019-01-11T08:03:15.206Z,101104.27
2019-01-11T08:05:44.795Z,101106.19
2019-01-11T08:08:14.330Z,101105.89
2019-01-11T08:10:43.931Z,101107.44
2019-01-11T08:13:13.596Z,101092.51
2019-01-11T08:15:43.137Z,101094.69
2019-01-11T08:18:12.700Z,101085.20
2019-01-11T08:20:42.309Z,101083.42
2019-01-11T08:23:11.970Z,101079.48
2019-01-11T08:25:41.528Z,101071.86
2019-01-11T08:28:12.156Z,101067.30
2019-01-11T08:30:41.699Z,101071.64
2019-01-11T08:33:11.264Z,101063.93
2019-01-11T08:35:40.841Z,101064.51
2019-01-11T08:38:10.470Z,101062.88
2019-01-11T08:40:40.021Z,101052.69
2019-01-11T08:43:09.623Z,101063.05
2019-01-11T08:45:39.152Z,101054.23
2019-01-11T08:48:08.719Z,101051.44
2019-01-11T08:50:38.749Z,101053.22
2019-01-11T08:53:08.344Z,101044.45
2019-01-11T08:55:37.946Z,101043.82
2019-01-11T08:58:07.592Z,101037.48
2019-01-11T09:00:37.125Z,101034.11
2019-01-11T09:03:06.660Z,101035.48
2019-01-11T09:05:36.236Z,101036.86
2019-01-11T09:08:06.182Z,101024.00
2019-01-11T09:10:35.736Z,101015.40
2019-01-11T09:13:05.403Z,101017.56
2019-01-11T09:15:34.954Z,101022.31
2019-01-11T09:18:10.512Z,101021.16
2019-01-11T09:20:40.352Z,101021.34
2019-01-11T09:23:09.955Z,101029.22
2019-01-11T09:25:39.487Z,101022.80
2019-01-11T09:28:09.189Z,101027.22
2019-01-11T09:30:38.744Z,101020.56
2019-01-11T09:33:08.525Z,101014.13
2019-01-11T09:35:38.335Z,101004.25
2019-01-11T09:38:07.988Z,101008.59
2019-01-11T09:40:37.495Z,100988.15
2019-01-11T09:43:07.066Z,100986.14
2019-01-11T09:45:36.605Z,100988.80
2019-01-11T09:48:08.410Z,100988.89
2019-01-11T09:50:38.128Z,100979.40
2019-01-11T09:53:07.749Z,100978.59
2019-01-11T09:55:37.309Z,100981.25
2019-01-11T09:58:07.004Z,100983.42
2019-01-11T10:00:36.686Z,100976.67
2019-01-11T10:03:06.291Z,100974.31
2019-01-11T10:05:35.861Z,100976.73
2019-01-11T10:08:05.562Z,100964.44
2019-01-11T10:10:35.161Z,100964.04
2019-01-11T10:13:04.907Z,100965.01
2019-01-11T10:15:34.440Z,100956.88
2019-01-11T10:18:04.167Z,100954.08
2019-01-11T10:20:33.734Z,100954.12
2019-01-11T10:23:03.630Z,100939.17
2019-01-11T10:25:33.259Z,100946.08
2019-01-11T10:28:02.828Z,100926.38
2019-01-11T10:30:32.373Z,100930.89
2019-01-11T10:33:01.919Z,100927.98
2019-01-11T10:35:31.896Z,100923.41
2019-01-11T10:38:01.440Z,100912.30
2019-01-11T10:40:30.986Z,100912.03
2019-01-11T10:43:00.793Z,100910.73
2019-01-11T10:45:30.334Z,100908.09
2019-01-11T10:47:59.948Z,100906.16
2019-01-11T10:50:29.628Z,100894.41
2019-01-11T10:52:59.180Z,100892.99
2019-01-11T10:55:28.847Z,100886.06
2019-01-11T10:57:58.768Z,100885.94
2019-01-11T11:00:29.270Z,100881.27
2019-01-11T11:02:59.043Z,100875.47
2019-01-11T11:05:29.338Z,100885.84
2019-01-11T11:07:59.017Z,100882.45
2019-01-11T11:10:28.660Z,100881.66
2019-01-11T11:12:58.231Z,100874.41
2019-01-11T11:15:27.777Z,100870.22
2019-01-11T11:17:57.334Z,100862.20
2019-01-11T11:20:26.891Z,100857.20
2019-01-11T11:22:56.602Z,100851.80
2019-01-11T11:25:26.150Z,100849.14
2019-01-11T11:27:55.728Z,100843.99
2019-01-11T11:30:25.637Z,100829.97
2019-01-11T11:32:58.915Z,100825.30
2019-01-11T11:35:28.919Z,100817.98
2019-01-11T11:37:58.469Z,100822.25
2019-01-11T11:40:28.543Z,100813.63
2019-01-11T11:42:58.183Z,100806.94
2019-01-11T11:45:31.109Z,100804.84
2019-01-11T11:48:00.636Z,100803.19
2019-01-11T11:50:30.463Z,100795.67
2019-01-11T11:53:00.582Z,100794.68
2019-01-11T11:55:30.120Z,100787.61
2019-01-11T11:57:59.798Z,100778.06
2019-01-11T12:00:29.476Z,100771.88
2019-01-11T12:02:59.083Z,100759.20
2019-01-11T12:05:28.931Z,100754.59
2019-01-11T12:07:58.458Z,100757.31
2019-01-11T12:10:28.004Z,100739.59
2019-01-11T12:12:57.748Z,100744.48
2019-01-11T12:15:27.299Z,100726.58
2019-01-11T12:17:56.832Z,100727.63
2019-01-11T12:20:29.194Z,100717.52
2019-01-11T12:22:58.864Z,100711.31
2019-01-11T12:25:28.397Z,100713.69
2019-01-11T12:27:57.974Z,100706.50
2019-01-11T12:30:27.581Z,100706.97
2019-01-11T12:32:57.119Z,100687.63
2019-01-11T12:35:26.702Z,100691.91
2019-01-11T12:37:56.227Z,100689.80
2019-01-11T12:40:25.757Z,100685.86
2019-01-11T12:42:55.323Z,100686.34
2019-01-11T12:45:24.855Z,100682.94
2019-01-11T12:47:54.385Z,100695.19
2019-01-11T12:50:25.685Z,100678.55
2019-01-11T12:52:55.218Z,100675.62
2019-01-11T12:55:24.843Z,100670.06
2019-01-11T12:57:54.419Z,100661.57
2019-01-11T13:00:24.903Z,100665.23
2019-01-11T13:02:54.460Z,100665.05
2019-01-11T13:05:24.658Z,100664.42
2019-01-11T13:07:54.212Z,100649.09
2019-01-11T13:10:23.966Z,100650.58
2019-01-11T13:12:53.531Z,100656.05
2019-01-11T13:15:23.263Z,100647.58
2019-01-11T13:17:52.836Z,100643.02
2019-01-11T13:20:22.459Z,100639.61
2019-01-11T13:22:52.404Z,100632.28
2019-01-11T13:25:22.015Z,100629.76
2019-01-11T13:27:51.581Z,100633.16
2019-01-11T13:30:21.286Z,100636.97
2019-01-11T13:32:50.905Z,100635.27
2019-01-11T13:35:20.651Z,100634.52
2019-01-11T13:37:50.336Z,100618.67
2019-01-11T13:40:22.762Z,100621.81
2019-01-11T13:42:52.487Z,100615.48
2019-01-11T13:45:22.562Z,100623.41
2019-01-11T13:47:52.518Z,100627.81
2019-01-11T13:50:38.465Z,100618.42
2019-01-11T13:53:09.605Z,100617.22
2019-01-11T13:55:39.210Z,100613.00
2019-01-11T13:58:09.028Z,100612.64
2019-01-11T14:00:38.640Z,100609.30
2019-01-11T14:03:08.634Z,100605.55
2019-01-11T14:05:38.700Z,100598.27
2019-01-11T14:08:08.298Z,100600.08
2019-01-11T14:10:37.919Z,100607.86
2019-01-11T14:13:07.596Z,100605.80
2019-01-11T14:15:37.135Z,100607.98
2019-01-11T14:18:06.937Z,100598.11
2019-01-11T14:20:36.591Z,100599.81
2019-01-11T14:23:06.366Z,100602.45
2019-01-11T14:25:36.056Z,100603.69
2019-01-11T14:28:06.030Z,100597.70
2019-01-11T14:30:35.807Z,100595.59
2019-01-11T14:33:05.568Z,100598.64
2019-01-11T14:35:35.313Z,100604.27
2019-01-11T14:38:04.996Z,100594.82
2019-01-11T14:40:34.875Z,100594.88
2019-01-11T14:43:06.464Z,100580.31
2019-01-11T14:45:36.011Z,100582.55
2019-01-11T14:48:05.982Z,100586.50
2019-01-11T14:50:35.613Z,100591.31
2019-01-11T14:53:05.394Z,100586.62
2019-01-11T14:55:34.952Z,100588.84
2019-01-11T14:58:04.727Z,100582.45
2019-01-11T15:00:34.273Z,100581.20
2019-01-11T15:03:03.885Z,100580.85
2019-01-11T15:05:33.567Z,100569.71
2019-01-11T15:08:03.105Z,100571.53
2019-01-11T15:10:32.648Z,100572.47
2019-01-11T15:13:02.215Z,100567.41
2019-01-11T15:15:31.749Z,100561.00
2019-01-11T15:18:01.292Z,100558.53
2019-01-11T15:20:30.857Z,100559.82
2019-01-11T15:23:00.387Z,100556.00
2019-01-11T15:25:29.966Z,100551.31
2019-01-11T15:27:59.588Z,100549.66
2019-01-11T15:30:29.129Z,100550.24
2019-01-11T15:32:58.656Z,100550.30
2019-01-11T15:35:28.221Z,100549.94
2019-01-11T15:37:58.106Z,100541.83
2019-01-11T15:40:28.272Z,100527.67
2019-01-11T15:42:57.813Z,100528.19
2019-01-11T15:45:27.359Z,100526.13
2019-01-11T15:47:56.891Z,100527.89
2019-01-11T15:50:49.171Z,100529.23
2019-01-11T15:53:18.700Z,100515.53
2019-01-11T15:55:48.752Z,100517.75
2019-01-11T15:58:18.312Z,100516.11
2019-01-11T16:00:49.485Z,100519.63
2019-01-11T16:03:19.470Z,100511.16
2019-01-11T16:05:53.992Z,100508.61
2019-01-11T16:08:23.551Z,100501.31
2019-01-11T16:11:17.710Z,100503.12
2019-01-11T16:14:13.272Z,100511.32
2019-01-11T16:16:42.807Z,100504.84
2019-01-11T16:19:12.624Z,100496.27
2019-01-11T16:21:42.183Z,100501.48
2019-01-11T16:24:12.062Z,100495.95
2019-01-11T16:26:41.793Z,100494.70
2019-01-11T16:29:11.395Z,100494.30
2019-01-11T16:31:41.021Z,100494.81
2019-01-11T16:34:10.585Z,100498.73
2019-01-11T16:36:40.111Z,100500.97
2019-01-11T16:39:10.125Z,100493.27
2019-01-11T16:41:39.652Z,100492.07
2019-01-11T16:44:09.255Z,100490.00
2019-01-11T16:46:38.819Z,100497.86
2019-01-11T16:49:08.345Z,100494.95
2019-01-11T16:51:37.899Z,100499.73
2019-01-11T16:54:07.443Z,100503.71
2019-01-11T16:56:36.971Z,100493.45
2019-01-11T16:59:07.527Z,100495.27
2019-01-11T17:01:37.203Z,100496.61
2019-01-11T17:04:06.946Z,100500.95
2019-01-11T17:06:36.490Z,100490.23
2019-01-11T17:09:08.803Z,100498.52
2019-01-11T17:11:38.360Z,100502.50
2019-01-11T17:14:08.160Z,100493.90
2019-01-11T17:16:37.848Z,100493.53
2019-01-11T17:19:07.386Z,100503.06
2019-01-11T17:21:36.923Z,100501.39
2019-01-11T17:24:06.546Z,100512.27
2019-01-11T17:26:36.093Z,100502.33
2019-01-11T17:29:05.846Z,100512.28
2019-01-11T17:31:35.393Z,100502.75
2019-01-11T17:34:05.271Z,100499.33
2019-01-11T17:36:35.328Z,100500.21
2019-01-11T17:39:07.635Z,100498.91
2019-01-11T17:41:37.176Z,100511.08
2019-01-11T17:44:06.886Z,100511.08
2019-01-11T17:46:36.423Z,100505.53
2019-01-11T17:49:06.261Z,100491.28
2019-01-11T17:51:35.902Z,100502.98
2019-01-11T17:54:05.805Z,100502.57
2019-01-11T17:56:35.335Z,100510.34
2019-01-11T17:59:05.392Z,100505.99
2019-01-11T18:01:35.111Z,100509.50
2019-01-11T18:04:04.902Z,100510.84
2019-01-11T18:06:34.555Z,100508.30
2019-01-11T18:09:06.038Z,100515.24
2019-01-11T18:11:35.586Z,100521.72
2019-01-11T18:14:05.380Z,100516.95
2019-01-11T18:16:34.916Z,100512.66
2019-01-11T18:19:04.536Z,100531.66
2019-01-11T18:21:34.095Z,100521.31
2019-01-11T18:24:03.697Z,100526.13
2019-01-11T18:26:33.237Z,100530.98
2019-01-11T18:29:02.920Z,100534.91
2019-01-11T18:31:32.462Z,100523.30
2019-01-11T18:34:01.995Z,100525.56
2019-01-11T18:36:31.561Z,100524.73
2019-01-11T18:39:01.097Z,100519.59
2019-01-11T18:41:30.645Z,100526.95
2019-01-11T18:44:00.362Z,100520.90
2019-01-11T18:46:30.023Z,100521.36
2019-01-11T18:48:59.588Z,100522.70
2019-01-11T18:51:29.156Z,100521.82
2019-01-11T18:53:58.681Z,100524.37
2019-01-11T18:56:28.237Z,100528.25
2019-01-11T18:58:57.797Z,100527.84
2019-01-11T19:01:27.331Z,100523.58
2019-01-11T19:03:56.871Z,100523.67
2019-01-11T19:06:26.427Z,100528.91
2019-01-11T19:08:55.966Z,100529.78
2019-01-11T19:11:25.506Z,100532.79
2019-01-11T19:13:55.451Z,100540.09
2019-01-11T19:16:25.143Z,100539.63
2019-01-11T19:18:54.706Z,100529.69
2019-01-11T19:21:24.386Z,100533.16
2019-01-11T19:23:53.918Z,100534.50
2019-01-11T19:26:23.458Z,100529.31
2019-01-11T19:28:53.022Z,100530.20
2019-01-11T19:31:22.553Z,100529.31
2019-01-11T19:33:53.631Z,100532.33
2019-01-11T19:36:23.354Z,100542.27
2019-01-11T19:38:52.883Z,100539.22
2019-01-11T19:41:22.441Z,100542.23
2019-01-11T19:43:52.067Z,100543.05
2019-01-11T19:46:21.601Z,100543.42
2019-01-11T19:48:51.406Z,100543.84
2019-01-11T19:51:20.988Z,100540.84
2019-01-11T19:53:50.518Z,100536.53
2019-01-11T19:56:20.122Z,100539.50
2019-01-11T19:58:49.689Z,100548.56
2019-01-11T20:01:19.430Z,100538.62
2019-01-11T20:03:48.997Z,100545.08
2019-01-11T20:06:18.603Z,100543.78
2019-01-11T20:08:48.341Z,100533.84
2019-01-11T20:11:17.876Z,100533.84
2019-01-11T20:13:47.417Z,100534.67
2019-01-11T20:16:17.045Z,100534.21
2019-01-11T20:18:46.572Z,100533.75
2019-01-11T20:21:16.599Z,100538.38
2019-01-11T20:23:46.132Z,100537.92
2019-01-11T20:26:16.006Z,100540.92
2019-01-11T20:28:45.624Z,100540.92
2019-01-11T20:31:15.182Z,100545.69
2019-01-11T20:33:44.743Z,100544.77
2019-01-11T20:36:14.287Z,100544.30
2019-01-11T20:38:43.826Z,100546.02
2019-01-11T20:41:13.410Z,100551.15
2019-01-11T20:43:43.018Z,100548.14
2019-01-11T20:46:12.653Z,100548.14
2019-01-11T20:48:42.188Z,100544.25
2019-01-11T20:51:11.725Z,100549.39
2019-01-11T20:53:41.935Z,100549.80
2019-01-11T20:56:11.712Z,100545.48
2019-01-11T20:58:41.435Z,100558.44
2019-01-11T21:01:12.690Z,100554.14
2019-01-11T21:03:42.394Z,100561.91
2019-01-11T21:06:12.036Z,100549.39
2019-01-11T21:08:41.577Z,100556.74
2019-01-11T21:11:11.222Z,100563.22
2019-01-11T21:13:40.925Z,100557.16
2019-01-11T21:16:10.631Z,100553.73
2019-01-11T21:18:40.196Z,100558.50
2019-01-11T21:21:09.739Z,100556.38
2019-01-11T21:23:39.281Z,100573.20
2019-01-11T21:26:08.836Z,100572.33
2019-01-11T21:28:38.371Z,100573.20
2019-01-11T21:31:08.001Z,100576.22
2019-01-11T21:33:37.545Z,100569.28
2019-01-11T21:36:07.179Z,100569.33
2019-01-11T21:38:36.720Z,100574.92
2019-01-11T21:41:06.361Z,100578.80
2019-01-11T21:43:35.967Z,100568.86
2019-01-11T21:46:05.677Z,100571.45
2019-01-11T21:48:35.225Z,100570.57
2019-01-11T21:51:04.835Z,100580.45
2019-01-11T21:53:34.458Z,100578.74
2019-01-11T21:56:04.051Z,100583.05
2019-01-11T21:58:33.598Z,100580.45
2019-01-11T22:01:03.139Z,100582.58
2019-01-11T22:03:32.749Z,100593.81
2019-01-11T22:06:02.394Z,100586.92
2019-01-11T22:08:32.051Z,100595.58
2019-01-11T22:11:01.796Z,100596.01
2019-01-11T22:13:31.669Z,100595.12
2019-01-11T22:16:01.222Z,100600.76
2019-01-11T22:18:30.761Z,100606.35
2019-01-11T22:21:00.299Z,100611.55
2019-01-11T22:23:30.205Z,100597.30
2019-01-11T22:25:59.747Z,100599.53
2019-01-11T22:28:29.368Z,100596.98
2019-01-11T22:30:58.907Z,100595.27
2019-01-11T22:33:28.436Z,100593.61
2019-01-11T22:35:58.493Z,100588.84
2019-01-11T22:38:28.025Z,100592.27
2019-01-11T22:40:57.625Z,100597.45
2019-01-11T22:43:27.315Z,100597.03
2019-01-11T22:45:56.851Z,100596.20
2019-01-11T22:48:26.380Z,100593.56
2019-01-11T22:50:56.035Z,100592.64
2019-01-11T22:53:25.572Z,100598.23
2019-01-11T22:55:55.103Z,100597.35
2019-01-11T22:58:24.667Z,100599.94
2019-01-11T23:00:58.987Z,100605.12
2019-01-11T23:03:33.413Z,100610.30
2019-01-11T23:06:22.615Z,100612.89
2019-01-11T23:08:52.174Z,100608.12
2019-01-11T23:11:29.248Z,100610.72
2019-01-11T23:13:58.824Z,100611.13
2019-01-11T23:16:32.661Z,100616.71
2019-01-11T23:19:02.196Z,100618.44
2019-01-11T23:21:31.753Z,100606.77
2019-01-11T23:24:01.286Z,100615.78
2019-01-11T23:26:30.844Z,100619.20
2019-01-11T23:29:00.379Z,100620.03
2019-01-11T23:31:29.947Z,100625.16
2019-01-11T23:33:59.471Z,100622.16
2019-01-11T23:36:29.271Z,100628.59
2019-01-11T23:38:58.833Z,100633.35
2019-01-11T23:41:28.378Z,100639.77
2019-01-11T23:43:57.925Z,100636.30
2019-01-11T23:46:27.459Z,100633.72
2019-01-11T23:48:57.116Z,100644.08
2019-01-11T23:51:26.721Z,100647.13
2019-01-11T23:53:56.247Z,100643.19
2019-01-11T23:56:25.802Z,100645.27
2019-01-11T23:58:55.338Z,100640.97
